Startpagina
METAR-TAF:

METAR-TAF

Vliegvelden :

Douglas, Wyoming, Verenigde Staten

breedte: 42-47-39N, lengte: 105-22-55W, hoogte: 1502 m

Actueel weer

Dit bericht is 28 minuten geleden gemaakt, om 15:53 UTC
Wind 20 kt uit het westnoordwesten met uitschieters tot 28 kt
Temperatuur 9°C
Vochtigheid 49%
Druk 1023 hPa
Zicht: 16.1 km
Weinig wolken op 4600 ft

METAR: KDGW 181553Z AUTO 30020G28KT 10SM FEW046 09/M01 A3020 RMK AO2 PK WND 31028/1549 SLP228 T00891006

Tijdstip: 10:21 (16:21 UTC)


TAF: ontbreekt

Waarnemingen en weersverwachtingen van meer dan 4000 vliegvelden (METAR en TAF).

De beschikbare stations zijn de gele en rode punten op de kaart.

Ga met uw muis naar het station om de naam te zien.

Klik dan om waarnemingen en weersverwachtingen te zien.

kaart wijzigen: klik op de groene knoppen met een zwart kruis om in te zoomen, op de groene knop met een streepje om uit te zoomen of op de groene pijlen voor aangrenzende kaarten.


METAR-TAF: